sensor_id;sensor_type;location;lat;lon;timestamp;temperature;humidity
12426;DHT22;6277;49.824;9.562;2022-07-06T00:01:44;20.20;40.10
12426;DHT22;6277;49.824;9.562;2022-07-06T00:04:10;20.20;40.10
12426;DHT22;6277;49.824;9.562;2022-07-06T00:06:36;20.20;40.20
12426;DHT22;6277;49.824;9.562;2022-07-06T00:09:03;20.10;40.30
12426;DHT22;6277;49.824;9.562;2022-07-06T00:11:28;20.10;40.30
12426;DHT22;6277;49.824;9.562;2022-07-06T00:13:54;20.10;40.60
12426;DHT22;6277;49.824;9.562;2022-07-06T00:16:22;20.10;40.40
12426;DHT22;6277;49.824;9.562;2022-07-06T00:18:48;20.10;40.60
12426;DHT22;6277;49.824;9.562;2022-07-06T00:21:13;20.10;40.70
12426;DHT22;6277;49.824;9.562;2022-07-06T00:23:39;20.10;40.80
12426;DHT22;6277;49.824;9.562;2022-07-06T00:26:04;20.00;40.90
12426;DHT22;6277;49.824;9.562;2022-07-06T00:28:30;20.00;41.00
12426;DHT22;6277;49.824;9.562;2022-07-06T00:30:56;20.00;41.00
12426;DHT22;6277;49.824;9.562;2022-07-06T00:33:22;19.90;41.20
12426;DHT22;6277;49.824;9.562;2022-07-06T00:35:48;19.90;41.30
12426;DHT22;6277;49.824;9.562;2022-07-06T00:38:14;19.90;41.30
12426;DHT22;6277;49.824;9.562;2022-07-06T00:40:40;19.90;41.50
12426;DHT22;6277;49.824;9.562;2022-07-06T00:43:05;19.80;41.40
12426;DHT22;6277;49.824;9.562;2022-07-06T00:45:31;19.80;41.50
12426;DHT22;6277;49.824;9.562;2022-07-06T00:47:56;19.80;41.60
12426;DHT22;6277;49.824;9.562;2022-07-06T00:50:22;19.80;41.80
12426;DHT22;6277;49.824;9.562;2022-07-06T00:52:55;19.80;41.90
12426;DHT22;6277;49.824;9.562;2022-07-06T00:55:23;19.80;42.30
12426;DHT22;6277;49.824;9.562;2022-07-06T00:57:49;19.80;42.20
12426;DHT22;6277;49.824;9.562;2022-07-06T01:00:17;19.70;42.10
12426;DHT22;6277;49.824;9.562;2022-07-06T01:02:44;19.80;42.40
12426;DHT22;6277;49.824;9.562;2022-07-06T01:05:12;19.80;42.90
12426;DHT22;6277;49.824;9.562;2022-07-06T01:07:40;19.80;42.30
12426;DHT22;6277;49.824;9.562;2022-07-06T01:10:06;19.70;42.60
12426;DHT22;6277;49.824;9.562;2022-07-06T01:12:34;19.80;42.40
12426;DHT22;6277;49.824;9.562;2022-07-06T01:15:01;19.80;42.60
12426;DHT22;6277;49.824;9.562;2022-07-06T01:17:28;19.70;42.50
12426;DHT22;6277;49.824;9.562;2022-07-06T01:19:53;19.70;42.60
12426;DHT22;6277;49.824;9.562;2022-07-06T01:22:19;19.70;42.50
12426;DHT22;6277;49.824;9.562;2022-07-06T01:24:45;19.70;43.10
12426;DHT22;6277;49.824;9.562;2022-07-06T01:27:10;19.60;42.60
12426;DHT22;6277;49.824;9.562;2022-07-06T01:29:36;19.60;42.70
12426;DHT22;6277;49.824;9.562;2022-07-06T01:32:02;19.50;43.30
12426;DHT22;6277;49.824;9.562;2022-07-06T01:34:28;19.50;42.80
12426;DHT22;6277;49.824;9.562;2022-07-06T01:36:53;19.50;42.90
12426;DHT22;6277;49.824;9.562;2022-07-06T01:39:20;19.40;42.80
12426;DHT22;6277;49.824;9.562;2022-07-06T01:41:45;19.40;43.00
12426;DHT22;6277;49.824;9.562;2022-07-06T01:44:11;19.40;42.90
12426;DHT22;6277;49.824;9.562;2022-07-06T01:46:37;19.30;43.10
12426;DHT22;6277;49.824;9.562;2022-07-06T01:49:03;19.30;43.20
12426;DHT22;6277;49.824;9.562;2022-07-06T01:51:29;19.30;43.30
12426;DHT22;6277;49.824;9.562;2022-07-06T01:53:54;19.20;43.30
12426;DHT22;6277;49.824;9.562;2022-07-06T01:56:20;19.20;43.30
12426;DHT22;6277;49.824;9.562;2022-07-06T01:58:46;19.10;43.30
12426;DHT22;6277;49.824;9.562;2022-07-06T02:01:15;19.10;43.50
12426;DHT22;6277;49.824;9.562;2022-07-06T02:03:41;19.10;43.60
12426;DHT22;6277;49.824;9.562;2022-07-06T02:06:07;19.00;43.40
12426;DHT22;6277;49.824;9.562;2022-07-06T02:08:34;19.00;43.40
12426;DHT22;6277;49.824;9.562;2022-07-06T02:11:00;18.90;43.70
12426;DHT22;6277;49.824;9.562;2022-07-06T02:13:26;18.90;43.70
12426;DHT22;6277;49.824;9.562;2022-07-06T02:15:52;18.80;43.70
12426;DHT22;6277;49.824;9.562;2022-07-06T02:18:17;18.70;43.70
12426;DHT22;6277;49.824;9.562;2022-07-06T02:20:43;18.70;43.80
12426;DHT22;6277;49.824;9.562;2022-07-06T02:23:08;18.60;44.00
12426;DHT22;6277;49.824;9.562;2022-07-06T02:25:34;18.50;43.90
12426;DHT22;6277;49.824;9.562;2022-07-06T02:27:59;18.40;44.20
12426;DHT22;6277;49.824;9.562;2022-07-06T02:30:25;18.40;44.40
12426;DHT22;6277;49.824;9.562;2022-07-06T02:32:51;18.30;44.50
12426;DHT22;6277;49.824;9.562;2022-07-06T02:35:17;18.30;44.50
12426;DHT22;6277;49.824;9.562;2022-07-06T02:37:42;18.20;44.60
12426;DHT22;6277;49.824;9.562;2022-07-06T02:40:08;18.20;44.80
12426;DHT22;6277;49.824;9.562;2022-07-06T02:42:34;18.10;44.90
12426;DHT22;6277;49.824;9.562;2022-07-06T02:45:00;18.10;45.10
12426;DHT22;6277;49.824;9.562;2022-07-06T02:47:26;18.00;45.00
12426;DHT22;6277;49.824;9.562;2022-07-06T02:49:52;18.00;45.00
12426;DHT22;6277;49.824;9.562;2022-07-06T02:52:18;17.90;45.20
12426;DHT22;6277;49.824;9.562;2022-07-06T02:54:43;17.90;45.30
12426;DHT22;6277;49.824;9.562;2022-07-06T02:57:09;17.90;45.50
12426;DHT22;6277;49.824;9.562;2022-07-06T02:59:34;17.90;45.60
12426;DHT22;6277;49.824;9.562;2022-07-06T03:02:02;17.80;45.70
12426;DHT22;6277;49.824;9.562;2022-07-06T03:04:27;17.80;45.80
12426;DHT22;6277;49.824;9.562;2022-07-06T03:06:53;17.80;45.90
12426;DHT22;6277;49.824;9.562;2022-07-06T03:09:18;17.80;46.00
12426;DHT22;6277;49.824;9.562;2022-07-06T03:11:44;17.90;46.10
12426;DHT22;6277;49.824;9.562;2022-07-06T03:14:09;17.90;46.10
12426;DHT22;6277;49.824;9.562;2022-07-06T03:16:35;17.90;46.20
12426;DHT22;6277;49.824;9.562;2022-07-06T03:19:00;18.00;46.20
12426;DHT22;6277;49.824;9.562;2022-07-06T03:21:26;18.00;46.30
12426;DHT22;6277;49.824;9.562;2022-07-06T03:23:51;18.00;46.30
12426;DHT22;6277;49.824;9.562;2022-07-06T03:26:17;18.10;46.30
12426;DHT22;6277;49.824;9.562;2022-07-06T03:28:43;18.10;46.40
12426;DHT22;6277;49.824;9.562;2022-07-06T03:31:08;18.10;46.30
12426;DHT22;6277;49.824;9.562;2022-07-06T03:33:34;18.10;46.30
12426;DHT22;6277;49.824;9.562;2022-07-06T03:35:59;18.10;46.40
12426;DHT22;6277;49.824;9.562;2022-07-06T03:38:25;18.10;46.40
12426;DHT22;6277;49.824;9.562;2022-07-06T03:40:51;18.10;46.40
12426;DHT22;6277;49.824;9.562;2022-07-06T03:43:16;18.10;46.50
12426;DHT22;6277;49.824;9.562;2022-07-06T03:45:42;18.10;46.60
12426;DHT22;6277;49.824;9.562;2022-07-06T03:48:08;18.10;46.60
12426;DHT22;6277;49.824;9.562;2022-07-06T03:50:34;18.10;46.70
12426;DHT22;6277;49.824;9.562;2022-07-06T03:52:59;18.10;46.80
12426;DHT22;6277;49.824;9.562;2022-07-06T03:55:25;18.10;46.90
12426;DHT22;6277;49.824;9.562;2022-07-06T03:57:50;18.10;47.00
12426;DHT22;6277;49.824;9.562;2022-07-06T04:00:16;18.10;46.90
12426;DHT22;6277;49.824;9.562;2022-07-06T04:02:42;18.10;47.10
12426;DHT22;6277;49.824;9.562;2022-07-06T04:05:08;18.10;47.10
12426;DHT22;6277;49.824;9.562;2022-07-06T04:07:33;18.10;47.20
12426;DHT22;6277;49.824;9.562;2022-07-06T04:09:59;18.10;47.30
12426;DHT22;6277;49.824;9.562;2022-07-06T04:12:24;18.10;47.40
12426;DHT22;6277;49.824;9.562;2022-07-06T04:14:50;18.10;47.50
12426;DHT22;6277;49.824;9.562;2022-07-06T04:17:16;18.10;47.60
12426;DHT22;6277;49.824;9.562;2022-07-06T04:20:00;18.10;47.60
12426;DHT22;6277;49.824;9.562;2022-07-06T04:22:26;18.10;47.80
12426;DHT22;6277;49.824;9.562;2022-07-06T04:24:52;18.10;47.90
12426;DHT22;6277;49.824;9.562;2022-07-06T04:27:17;18.20;47.90
12426;DHT22;6277;49.824;9.562;2022-07-06T04:29:43;18.20;48.00
12426;DHT22;6277;49.824;9.562;2022-07-06T04:32:08;18.30;48.20
12426;DHT22;6277;49.824;9.562;2022-07-06T04:34:34;18.30;48.30
12426;DHT22;6277;49.824;9.562;2022-07-06T04:36:59;18.30;48.20
12426;DHT22;6277;49.824;9.562;2022-07-06T04:39:25;18.40;48.30
12426;DHT22;6277;49.824;9.562;2022-07-06T04:41:51;18.50;48.90
12426;DHT22;6277;49.824;9.562;2022-07-06T04:44:16;18.50;48.40
12426;DHT22;6277;49.824;9.562;2022-07-06T04:46:42;18.60;48.40
12426;DHT22;6277;49.824;9.562;2022-07-06T04:49:07;18.70;48.50
12426;DHT22;6277;49.824;9.562;2022-07-06T04:51:33;18.70;48.40
12426;DHT22;6277;49.824;9.562;2022-07-06T04:53:58;18.80;48.40
12426;DHT22;6277;49.824;9.562;2022-07-06T04:56:24;18.90;48.50
12426;DHT22;6277;49.824;9.562;2022-07-06T04:58:49;19.00;48.60
12426;DHT22;6277;49.824;9.562;2022-07-06T05:01:15;19.00;48.60
12426;DHT22;6277;49.824;9.562;2022-07-06T05:03:41;19.10;48.60
12426;DHT22;6277;49.824;9.562;2022-07-06T05:06:07;19.20;48.70
12426;DHT22;6277;49.824;9.562;2022-07-06T05:08:33;19.30;48.80
12426;DHT22;6277;49.824;9.562;2022-07-06T05:11:00;19.50;48.80
12426;DHT22;6277;49.824;9.562;2022-07-06T05:13:25;19.50;48.60
12426;DHT22;6277;49.824;9.562;2022-07-06T05:15:51;19.70;48.70
12426;DHT22;6277;49.824;9.562;2022-07-06T05:18:16;19.70;48.50
12426;DHT22;6277;49.824;9.562;2022-07-06T05:20:42;19.80;48.40
12426;DHT22;6277;49.824;9.562;2022-07-06T05:23:08;19.90;48.40
12426;DHT22;6277;49.824;9.562;2022-07-06T05:25:34;20.00;48.90
12426;DHT22;6277;49.824;9.562;2022-07-06T05:27:59;20.00;48.30
12426;DHT22;6277;49.824;9.562;2022-07-06T05:30:25;20.00;48.20
12426;DHT22;6277;49.824;9.562;2022-07-06T05:32:51;20.00;48.20
12426;DHT22;6277;49.824;9.562;2022-07-06T05:35:17;20.10;48.20
12426;DHT22;6277;49.824;9.562;2022-07-06T05:37:43;20.10;48.20
12426;DHT22;6277;49.824;9.562;2022-07-06T05:40:09;20.10;48.40
12426;DHT22;6277;49.824;9.562;2022-07-06T05:42:35;20.20;48.30
12426;DHT22;6277;49.824;9.562;2022-07-06T05:45:00;20.30;48.40
12426;DHT22;6277;49.824;9.562;2022-07-06T05:47:26;20.30;48.30
12426;DHT22;6277;49.824;9.562;2022-07-06T05:50:10;20.30;48.30
12426;DHT22;6277;49.824;9.562;2022-07-06T05:52:40;20.30;48.20
12426;DHT22;6277;49.824;9.562;2022-07-06T05:55:06;20.40;48.10
12426;DHT22;6277;49.824;9.562;2022-07-06T05:57:31;20.40;48.10
12426;DHT22;6277;49.824;9.562;2022-07-06T05:59:57;20.30;48.10
12426;DHT22;6277;49.824;9.562;2022-07-06T06:02:23;20.40;48.20
12426;DHT22;6277;49.824;9.562;2022-07-06T06:04:48;20.40;48.20
12426;DHT22;6277;49.824;9.562;2022-07-06T06:07:14;20.40;48.30
12426;DHT22;6277;49.824;9.562;2022-07-06T06:09:39;20.40;48.20
12426;DHT22;6277;49.824;9.562;2022-07-06T06:12:05;20.40;48.80
12426;DHT22;6277;49.824;9.562;2022-07-06T06:14:31;20.40;48.10
12426;DHT22;6277;49.824;9.562;2022-07-06T06:16:57;20.40;48.20
12426;DHT22;6277;49.824;9.562;2022-07-06T06:19:22;20.40;48.20
12426;DHT22;6277;49.824;9.562;2022-07-06T06:21:48;20.40;48.20
12426;DHT22;6277;49.824;9.562;2022-07-06T06:24:13;20.40;48.20
12426;DHT22;6277;49.824;9.562;2022-07-06T06:26:39;20.50;48.30
12426;DHT22;6277;49.824;9.562;2022-07-06T06:29:04;20.50;48.20
12426;DHT22;6277;49.824;9.562;2022-07-06T06:31:30;20.50;48.20
12426;DHT22;6277;49.824;9.562;2022-07-06T06:33:55;20.50;48.20
12426;DHT22;6277;49.824;9.562;2022-07-06T06:36:21;20.50;48.30
12426;DHT22;6277;49.824;9.562;2022-07-06T06:38:47;20.50;48.30
12426;DHT22;6277;49.824;9.562;2022-07-06T06:41:13;20.60;48.30
12426;DHT22;6277;49.824;9.562;2022-07-06T06:43:40;20.60;48.30
12426;DHT22;6277;49.824;9.562;2022-07-06T06:46:06;20.60;48.30
12426;DHT22;6277;49.824;9.562;2022-07-06T06:48:31;20.50;48.30
12426;DHT22;6277;49.824;9.562;2022-07-06T06:50:57;20.60;48.30
12426;DHT22;6277;49.824;9.562;2022-07-06T06:53:23;20.60;48.40
12426;DHT22;6277;49.824;9.562;2022-07-06T06:55:48;20.60;48.40
12426;DHT22;6277;49.824;9.562;2022-07-06T06:58:14;20.60;48.50
12426;DHT22;6277;49.824;9.562;2022-07-06T07:00:40;20.60;48.50
12426;DHT22;6277;49.824;9.562;2022-07-06T07:03:05;20.70;48.60
12426;DHT22;6277;49.824;9.562;2022-07-06T07:05:31;20.70;48.60
12426;DHT22;6277;49.824;9.562;2022-07-06T07:07:57;20.70;48.50
12426;DHT22;6277;49.824;9.562;2022-07-06T07:10:25;20.80;48.50
12426;DHT22;6277;49.824;9.562;2022-07-06T07:12:51;20.90;48.50
12426;DHT22;6277;49.824;9.562;2022-07-06T07:15:17;20.90;48.50
12426;DHT22;6277;49.824;9.562;2022-07-06T07:17:42;20.90;48.40
12426;DHT22;6277;49.824;9.562;2022-07-06T07:20:08;21.00;48.50
12426;DHT22;6277;49.824;9.562;2022-07-06T07:22:34;21.00;48.40
12426;DHT22;6277;49.824;9.562;2022-07-06T07:24:59;21.10;48.40
12426;DHT22;6277;49.824;9.562;2022-07-06T07:27:25;21.10;48.40
12426;DHT22;6277;49.824;9.562;2022-07-06T07:29:51;21.10;48.40
12426;DHT22;6277;49.824;9.562;2022-07-06T07:32:16;21.20;48.30
12426;DHT22;6277;49.824;9.562;2022-07-06T07:34:42;21.20;48.30
12426;DHT22;6277;49.824;9.562;2022-07-06T07:37:08;21.30;48.30
12426;DHT22;6277;49.824;9.562;2022-07-06T07:39:33;21.30;48.40
12426;DHT22;6277;49.824;9.562;2022-07-06T07:41:59;21.40;48.40
12426;DHT22;6277;49.824;9.562;2022-07-06T07:44:24;21.40;48.30
12426;DHT22;6277;49.824;9.562;2022-07-06T07:46:52;21.50;48.30
12426;DHT22;6277;49.824;9.562;2022-07-06T07:49:18;21.50;48.30
12426;DHT22;6277;49.824;9.562;2022-07-06T07:51:44;21.60;48.30
12426;DHT22;6277;49.824;9.562;2022-07-06T07:54:12;21.70;48.20
12426;DHT22;6277;49.824;9.562;2022-07-06T07:56:37;21.80;48.20
12426;DHT22;6277;49.824;9.562;2022-07-06T07:59:06;21.80;48.10
12426;DHT22;6277;49.824;9.562;2022-07-06T08:01:32;21.90;48.10
12426;DHT22;6277;49.824;9.562;2022-07-06T08:03:58;22.00;48.00
12426;DHT22;6277;49.824;9.562;2022-07-06T08:06:24;22.10;48.00
12426;DHT22;6277;49.824;9.562;2022-07-06T08:08:50;22.20;48.00
12426;DHT22;6277;49.824;9.562;2022-07-06T08:11:15;22.30;47.80
12426;DHT22;6277;49.824;9.562;2022-07-06T08:13:41;22.40;47.70
12426;DHT22;6277;49.824;9.562;2022-07-06T08:16:07;22.50;47.60
12426;DHT22;6277;49.824;9.562;2022-07-06T08:18:33;22.60;48.00
12426;DHT22;6277;49.824;9.562;2022-07-06T08:20:59;22.70;47.50
12426;DHT22;6277;49.824;9.562;2022-07-06T08:23:24;22.80;48.10
12426;DHT22;6277;49.824;9.562;2022-07-06T08:25:50;22.90;47.50
12426;DHT22;6277;49.824;9.562;2022-07-06T08:28:15;23.00;47.50
12426;DHT22;6277;49.824;9.562;2022-07-06T08:30:41;23.20;47.50
12426;DHT22;6277;49.824;9.562;2022-07-06T08:33:06;23.40;47.30
12426;DHT22;6277;49.824;9.562;2022-07-06T08:35:32;23.60;47.10
12426;DHT22;6277;49.824;9.562;2022-07-06T08:37:57;23.60;46.80
12426;DHT22;6277;49.824;9.562;2022-07-06T08:40:23;23.80;46.70
12426;DHT22;6277;49.824;9.562;2022-07-06T08:42:53;23.90;46.60
12426;DHT22;6277;49.824;9.562;2022-07-06T08:45:19;24.00;46.20
12426;DHT22;6277;49.824;9.562;2022-07-06T08:47:49;24.10;46.30
12426;DHT22;6277;49.824;9.562;2022-07-06T08:50:15;24.10;46.20
12426;DHT22;6277;49.824;9.562;2022-07-06T08:52:41;24.20;46.10
12426;DHT22;6277;49.824;9.562;2022-07-06T08:55:10;24.30;46.10
12426;DHT22;6277;49.824;9.562;2022-07-06T08:57:37;24.50;45.80
12426;DHT22;6277;49.824;9.562;2022-07-06T09:00:07;24.60;45.60
12426;DHT22;6277;49.824;9.562;2022-07-06T09:02:33;24.60;45.30
12426;DHT22;6277;49.824;9.562;2022-07-06T09:05:02;24.60;45.10
12426;DHT22;6277;49.824;9.562;2022-07-06T09:07:29;24.60;45.00
12426;DHT22;6277;49.824;9.562;2022-07-06T09:09:55;24.70;45.10
12426;DHT22;6277;49.824;9.562;2022-07-06T09:12:21;24.70;45.10
12426;DHT22;6277;49.824;9.562;2022-07-06T09:14:47;24.80;45.00
12426;DHT22;6277;49.824;9.562;2022-07-06T09:17:13;24.90;44.70
12426;DHT22;6277;49.824;9.562;2022-07-06T09:19:39;24.90;44.40
12426;DHT22;6277;49.824;9.562;2022-07-06T09:22:05;24.90;44.30
12426;DHT22;6277;49.824;9.562;2022-07-06T09:24:31;24.90;44.40
12426;DHT22;6277;49.824;9.562;2022-07-06T09:26:58;24.90;44.10
12426;DHT22;6277;49.824;9.562;2022-07-06T09:29:28;24.90;43.90
12426;DHT22;6277;49.824;9.562;2022-07-06T09:32:00;24.80;43.70
12426;DHT22;6277;49.824;9.562;2022-07-06T09:37:07;24.60;43.90
12426;DHT22;6277;49.824;9.562;2022-07-06T09:39:33;24.60;43.80
12426;DHT22;6277;49.824;9.562;2022-07-06T09:42:00;24.50;43.70
12426;DHT22;6277;49.824;9.562;2022-07-06T09:44:27;24.50;43.60
12426;DHT22;6277;49.824;9.562;2022-07-06T09:46:55;24.40;43.50
12426;DHT22;6277;49.824;9.562;2022-07-06T09:49:22;24.30;43.30
12426;DHT22;6277;49.824;9.562;2022-07-06T09:51:50;24.20;43.00
12426;DHT22;6277;49.824;9.562;2022-07-06T09:54:16;24.20;43.00
12426;DHT22;6277;49.824;9.562;2022-07-06T09:56:44;24.10;43.00
12426;DHT22;6277;49.824;9.562;2022-07-06T09:59:12;24.10;43.10
12426;DHT22;6277;49.824;9.562;2022-07-06T10:01:39;24.20;43.40
12426;DHT22;6277;49.824;9.562;2022-07-06T10:04:14;24.20;43.40
12426;DHT22;6277;49.824;9.562;2022-07-06T10:06:40;24.30;42.90
12426;DHT22;6277;49.824;9.562;2022-07-06T10:09:08;24.30;43.00
12426;DHT22;6277;49.824;9.562;2022-07-06T10:11:37;24.40;42.70
12426;DHT22;6277;49.824;9.562;2022-07-06T10:14:05;24.40;42.40
12426;DHT22;6277;49.824;9.562;2022-07-06T10:16:31;24.40;42.30
12426;DHT22;6277;49.824;9.562;2022-07-06T10:18:58;24.40;42.50
12426;DHT22;6277;49.824;9.562;2022-07-06T10:21:26;24.50;42.60
12426;DHT22;6277;49.824;9.562;2022-07-06T10:23:52;24.50;42.50
12426;DHT22;6277;49.824;9.562;2022-07-06T10:26:19;24.60;42.30
12426;DHT22;6277;49.824;9.562;2022-07-06T10:28:47;24.60;42.10
12426;DHT22;6277;49.824;9.562;2022-07-06T10:31:16;24.50;41.70
12426;DHT22;6277;49.824;9.562;2022-07-06T10:33:43;24.40;41.70
12426;DHT22;6277;49.824;9.562;2022-07-06T10:36:10;24.30;41.80
12426;DHT22;6277;49.824;9.562;2022-07-06T10:38:35;24.30;41.90
12426;DHT22;6277;49.824;9.562;2022-07-06T10:41:08;24.20;42.10
12426;DHT22;6277;49.824;9.562;2022-07-06T10:43:45;24.20;42.10
12426;DHT22;6277;49.824;9.562;2022-07-06T10:46:15;24.20;41.90
12426;DHT22;6277;49.824;9.562;2022-07-06T10:48:43;24.20;41.80
12426;DHT22;6277;49.824;9.562;2022-07-06T10:51:11;24.20;41.70
12426;DHT22;6277;49.824;9.562;2022-07-06T10:53:39;24.10;41.50
12426;DHT22;6277;49.824;9.562;2022-07-06T10:56:09;24.10;41.40
12426;DHT22;6277;49.824;9.562;2022-07-06T10:58:50;24.00;41.10
12426;DHT22;6277;49.824;9.562;2022-07-06T11:01:18;24.00;41.00
12426;DHT22;6277;49.824;9.562;2022-07-06T11:06:24;24.00;41.70
12426;DHT22;6277;49.824;9.562;2022-07-06T11:09:01;24.10;41.90
12426;DHT22;6277;49.824;9.562;2022-07-06T11:14:16;24.30;41.20
12426;DHT22;6277;49.824;9.562;2022-07-06T11:21:50;24.50;40.80
12426;DHT22;6277;49.824;9.562;2022-07-06T11:24:27;24.40;40.50
12426;DHT22;6277;49.824;9.562;2022-07-06T11:26:54;24.40;40.60
12426;DHT22;6277;49.824;9.562;2022-07-06T11:29:21;24.40;40.80
12426;DHT22;6277;49.824;9.562;2022-07-06T11:31:52;24.40;40.80
12426;DHT22;6277;49.824;9.562;2022-07-06T11:34:23;24.50;40.90
12426;DHT22;6277;49.824;9.562;2022-07-06T11:37:04;24.50;40.60
12426;DHT22;6277;49.824;9.562;2022-07-06T11:39:31;24.50;40.40
12426;DHT22;6277;49.824;9.562;2022-07-06T11:41:58;24.40;40.40
12426;DHT22;6277;49.824;9.562;2022-07-06T11:44:24;24.40;40.40
12426;DHT22;6277;49.824;9.562;2022-07-06T11:46:50;24.40;40.40
12426;DHT22;6277;49.824;9.562;2022-07-06T11:49:16;24.30;40.20
12426;DHT22;6277;49.824;9.562;2022-07-06T11:51:42;24.30;40.30
12426;DHT22;6277;49.824;9.562;2022-07-06T11:54:13;24.30;40.40
12426;DHT22;6277;49.824;9.562;2022-07-06T11:56:47;24.40;40.30
12426;DHT22;6277;49.824;9.562;2022-07-06T11:59:12;24.40;39.80
12426;DHT22;6277;49.824;9.562;2022-07-06T12:01:39;24.40;40.40
12426;DHT22;6277;49.824;9.562;2022-07-06T12:04:09;24.50;40.20
12426;DHT22;6277;49.824;9.562;2022-07-06T12:06:34;24.50;40.30
12426;DHT22;6277;49.824;9.562;2022-07-06T12:09:01;24.60;40.30
12426;DHT22;6277;49.824;9.562;2022-07-06T12:11:34;24.70;40.30
12426;DHT22;6277;49.824;9.562;2022-07-06T12:14:13;24.90;40.10
12426;DHT22;6277;49.824;9.562;2022-07-06T12:16:39;25.00;40.00
12426;DHT22;6277;49.824;9.562;2022-07-06T12:19:05;25.10;39.90
12426;DHT22;6277;49.824;9.562;2022-07-06T12:21:34;25.20;40.20
12426;DHT22;6277;49.824;9.562;2022-07-06T12:23:59;25.20;39.30
12426;DHT22;6277;49.824;9.562;2022-07-06T12:26:27;25.20;39.20
12426;DHT22;6277;49.824;9.562;2022-07-06T12:29:11;25.20;39.00
12426;DHT22;6277;49.824;9.562;2022-07-06T12:31:52;25.30;39.00
12426;DHT22;6277;49.824;9.562;2022-07-06T12:34:23;25.40;39.20
12426;DHT22;6277;49.824;9.562;2022-07-06T12:36:57;25.50;39.20
12426;DHT22;6277;49.824;9.562;2022-07-06T12:39:23;25.60;38.90
12426;DHT22;6277;49.824;9.562;2022-07-06T12:44:20;25.70;39.10
12426;DHT22;6277;49.824;9.562;2022-07-06T12:46:47;25.80;39.00
12426;DHT22;6277;49.824;9.562;2022-07-06T12:49:23;25.90;38.90
12426;DHT22;6277;49.824;9.562;2022-07-06T12:54:36;25.90;38.00
12426;DHT22;6277;49.824;9.562;2022-07-06T12:57:13;25.90;38.30
12426;DHT22;6277;49.824;9.562;2022-07-06T12:59:56;25.90;38.10
12426;DHT22;6277;49.824;9.562;2022-07-06T13:02:24;25.90;37.70
12426;DHT22;6277;49.824;9.562;2022-07-06T13:04:57;25.80;38.10
12426;DHT22;6277;49.824;9.562;2022-07-06T13:07:23;25.80;37.90
12426;DHT22;6277;49.824;9.562;2022-07-06T13:09:49;25.80;38.20
12426;DHT22;6277;49.824;9.562;2022-07-06T13:12:14;25.90;38.20
12426;DHT22;6277;49.824;9.562;2022-07-06T13:14:40;26.00;38.20
12426;DHT22;6277;49.824;9.562;2022-07-06T13:17:05;26.10;38.30
12426;DHT22;6277;49.824;9.562;2022-07-06T13:19:31;26.30;38.10
12426;DHT22;6277;49.824;9.562;2022-07-06T13:21:56;26.40;38.00
12426;DHT22;6277;49.824;9.562;2022-07-06T13:24:22;26.60;37.70
12426;DHT22;6277;49.824;9.562;2022-07-06T13:26:47;26.70;37.50
12426;DHT22;6277;49.824;9.562;2022-07-06T13:29:13;26.80;37.30
12426;DHT22;6277;49.824;9.562;2022-07-06T13:31:40;26.90;36.90
12426;DHT22;6277;49.824;9.562;2022-07-06T13:34:06;26.90;36.20
12426;DHT22;6277;49.824;9.562;2022-07-06T13:36:33;27.00;36.40
12426;DHT22;6277;49.824;9.562;2022-07-06T13:38:59;27.00;36.50
12426;DHT22;6277;49.824;9.562;2022-07-06T13:41:24;27.10;36.60
12426;DHT22;6277;49.824;9.562;2022-07-06T13:43:50;27.30;36.80
12426;DHT22;6277;49.824;9.562;2022-07-06T13:46:16;27.40;36.70
12426;DHT22;6277;49.824;9.562;2022-07-06T13:48:42;27.60;36.50
12426;DHT22;6277;49.824;9.562;2022-07-06T13:51:07;27.60;36.20
12426;DHT22;6277;49.824;9.562;2022-07-06T13:53:33;27.70;36.20
12426;DHT22;6277;49.824;9.562;2022-07-06T13:55:59;27.70;36.00
12426;DHT22;6277;49.824;9.562;2022-07-06T13:58:25;27.80;35.80
12426;DHT22;6277;49.824;9.562;2022-07-06T14:00:50;27.90;35.40
12426;DHT22;6277;49.824;9.562;2022-07-06T14:03:16;28.00;35.80
12426;DHT22;6277;49.824;9.562;2022-07-06T14:05:41;28.10;35.60
12426;DHT22;6277;49.824;9.562;2022-07-06T14:08:07;28.20;35.30
12426;DHT22;6277;49.824;9.562;2022-07-06T14:10:33;28.30;35.20
12426;DHT22;6277;49.824;9.562;2022-07-06T14:12:58;28.50;34.80
12426;DHT22;6277;49.824;9.562;2022-07-06T14:15:24;28.70;34.80
12426;DHT22;6277;49.824;9.562;2022-07-06T14:17:50;28.80;34.80
12426;DHT22;6277;49.824;9.562;2022-07-06T14:20:15;28.90;35.50
12426;DHT22;6277;49.824;9.562;2022-07-06T14:22:41;29.10;34.90
12426;DHT22;6277;49.824;9.562;2022-07-06T14:25:07;29.30;34.60
12426;DHT22;6277;49.824;9.562;2022-07-06T14:27:34;29.50;34.90
12426;DHT22;6277;49.824;9.562;2022-07-06T14:30:00;29.70;33.70
12426;DHT22;6277;49.824;9.562;2022-07-06T14:32:26;29.80;34.00
12426;DHT22;6277;49.824;9.562;2022-07-06T14:34:51;29.90;33.30
12426;DHT22;6277;49.824;9.562;2022-07-06T14:37:17;30.00;33.30
12426;DHT22;6277;49.824;9.562;2022-07-06T14:39:42;30.10;32.90
12426;DHT22;6277;49.824;9.562;2022-07-06T14:42:10;30.20;32.70
12426;DHT22;6277;49.824;9.562;2022-07-06T14:44:36;30.20;32.50
12426;DHT22;6277;49.824;9.562;2022-07-06T14:47:02;30.30;32.40
12426;DHT22;6277;49.824;9.562;2022-07-06T14:49:27;30.40;32.00
12426;DHT22;6277;49.824;9.562;2022-07-06T14:51:52;30.50;31.40
12426;DHT22;6277;49.824;9.562;2022-07-06T14:54:18;30.50;31.40
12426;DHT22;6277;49.824;9.562;2022-07-06T14:56:44;30.50;31.10
12426;DHT22;6277;49.824;9.562;2022-07-06T14:59:10;30.50;31.00
12426;DHT22;6277;49.824;9.562;2022-07-06T15:01:35;30.50;31.20
12426;DHT22;6277;49.824;9.562;2022-07-06T15:04:01;30.50;31.30
12426;DHT22;6277;49.824;9.562;2022-07-06T15:06:26;30.60;31.40
12426;DHT22;6277;49.824;9.562;2022-07-06T15:08:52;30.70;31.60
12426;DHT22;6277;49.824;9.562;2022-07-06T15:11:17;30.80;31.30
12426;DHT22;6277;49.824;9.562;2022-07-06T15:13:43;31.00;31.20
12426;DHT22;6277;49.824;9.562;2022-07-06T15:16:08;31.10;31.00
12426;DHT22;6277;49.824;9.562;2022-07-06T15:18:34;31.20;30.70
12426;DHT22;6277;49.824;9.562;2022-07-06T15:21:00;31.20;30.50
12426;DHT22;6277;49.824;9.562;2022-07-06T15:23:25;31.30;30.30
12426;DHT22;6277;49.824;9.562;2022-07-06T15:25:54;31.40;30.40
12426;DHT22;6277;49.824;9.562;2022-07-06T15:28:20;31.50;30.30
12426;DHT22;6277;49.824;9.562;2022-07-06T15:30:46;31.70;30.20
12426;DHT22;6277;49.824;9.562;2022-07-06T15:33:12;31.80;30.10
12426;DHT22;6277;49.824;9.562;2022-07-06T15:35:37;31.90;30.00
12426;DHT22;6277;49.824;9.562;2022-07-06T15:38:03;32.10;29.90
12426;DHT22;6277;49.824;9.562;2022-07-06T15:40:28;32.20;29.80
12426;DHT22;6277;49.824;9.562;2022-07-06T15:42:59;32.40;29.70
12426;DHT22;6277;49.824;9.562;2022-07-06T15:45:25;32.40;29.30
12426;DHT22;6277;49.824;9.562;2022-07-06T15:47:51;32.40;29.10
12426;DHT22;6277;49.824;9.562;2022-07-06T15:50:17;32.40;29.00
12426;DHT22;6277;49.824;9.562;2022-07-06T15:52:45;32.30;28.80
12426;DHT22;6277;49.824;9.562;2022-07-06T15:55:11;32.10;28.50
12426;DHT22;6277;49.824;9.562;2022-07-06T15:57:36;31.90;28.40
12426;DHT22;6277;49.824;9.562;2022-07-06T16:00:02;31.60;28.20